sensor_id;sensor_type;location;lat;lon;timestamp;P1;durP1;ratioP1;P2;durP2;ratioP2
3050;SDS011;1535;51.098;6.414;2022-10-31T00:01:15;22.23;;;17.57;;
3050;SDS011;1535;51.098;6.414;2022-10-31T00:03:44;24.90;;;16.30;;
3050;SDS011;1535;51.098;6.414;2022-10-31T00:06:10;20.43;;;18.00;;
3050;SDS011;1535;51.098;6.414;2022-10-31T00:08:37;23.07;;;17.37;;
3050;SDS011;1535;51.098;6.414;2022-10-31T00:11:07;23.63;;;16.30;;
3050;SDS011;1535;51.098;6.414;2022-10-31T00:13:35;19.77;;;15.93;;
3050;SDS011;1535;51.098;6.414;2022-10-31T00:16:05;17.83;;;15.17;;
3050;SDS011;1535;51.098;6.414;2022-10-31T00:18:38;19.47;;;14.90;;
3050;SDS011;1535;51.098;6.414;2022-10-31T00:21:06;16.73;;;14.90;;
3050;SDS011;1535;51.098;6.414;2022-10-31T00:23:33;18.50;;;16.70;;
3050;SDS011;1535;51.098;6.414;2022-10-31T00:26:00;20.00;;;16.07;;
3050;SDS011;1535;51.098;6.414;2022-10-31T00:28:28;19.43;;;15.67;;
3050;SDS011;1535;51.098;6.414;2022-10-31T00:30:58;21.40;;;16.03;;
3050;SDS011;1535;51.098;6.414;2022-10-31T00:33:27;21.80;;;17.70;;
3050;SDS011;1535;51.098;6.414;2022-10-31T00:35:54;27.87;;;16.37;;
3050;SDS011;1535;51.098;6.414;2022-10-31T00:38:24;24.13;;;16.03;;
3050;SDS011;1535;51.098;6.414;2022-10-31T00:40:51;17.30;;;15.70;;
3050;SDS011;1535;51.098;6.414;2022-10-31T00:43:18;20.10;;;16.90;;
3050;SDS011;1535;51.098;6.414;2022-10-31T00:45:46;28.10;;;18.10;;
3050;SDS011;1535;51.098;6.414;2022-10-31T00:48:13;21.67;;;18.17;;
3050;SDS011;1535;51.098;6.414;2022-10-31T00:50:42;28.57;;;17.90;;
3050;SDS011;1535;51.098;6.414;2022-10-31T00:53:09;20.57;;;17.20;;
3050;SDS011;1535;51.098;6.414;2022-10-31T00:55:37;17.63;;;15.70;;
3050;SDS011;1535;51.098;6.414;2022-10-31T00:58:05;24.90;;;17.17;;
3050;SDS011;1535;51.098;6.414;2022-10-31T01:00:31;23.47;;;17.93;;
3050;SDS011;1535;51.098;6.414;2022-10-31T01:02:58;24.50;;;16.37;;
3050;SDS011;1535;51.098;6.414;2022-10-31T01:05:25;18.80;;;16.90;;
3050;SDS011;1535;51.098;6.414;2022-10-31T01:07:53;25.50;;;17.00;;
3050;SDS011;1535;51.098;6.414;2022-10-31T01:10:20;23.20;;;17.90;;
3050;SDS011;1535;51.098;6.414;2022-10-31T01:12:47;21.80;;;15.77;;
3050;SDS011;1535;51.098;6.414;2022-10-31T01:15:17;25.17;;;17.23;;
3050;SDS011;1535;51.098;6.414;2022-10-31T01:17:45;18.67;;;16.77;;
3050;SDS011;1535;51.098;6.414;2022-10-31T01:20:13;23.43;;;16.70;;
3050;SDS011;1535;51.098;6.414;2022-10-31T01:22:41;20.13;;;17.67;;
3050;SDS011;1535;51.098;6.414;2022-10-31T01:25:10;21.23;;;18.33;;
3050;SDS011;1535;51.098;6.414;2022-10-31T01:27:37;24.30;;;18.47;;
3050;SDS011;1535;51.098;6.414;2022-10-31T01:30:06;19.27;;;17.37;;
3050;SDS011;1535;51.098;6.414;2022-10-31T01:32:33;21.10;;;18.90;;
3050;SDS011;1535;51.098;6.414;2022-10-31T01:35:00;20.43;;;18.27;;
3050;SDS011;1535;51.098;6.414;2022-10-31T01:37:27;24.07;;;19.40;;
3050;SDS011;1535;51.098;6.414;2022-10-31T01:39:54;21.17;;;18.87;;
3050;SDS011;1535;51.098;6.414;2022-10-31T01:42:23;27.13;;;19.80;;
3050;SDS011;1535;51.098;6.414;2022-10-31T01:44:54;26.90;;;19.33;;
3050;SDS011;1535;51.098;6.414;2022-10-31T01:47:26;32.13;;;21.53;;
3050;SDS011;1535;51.098;6.414;2022-10-31T01:50:05;23.53;;;20.73;;
3050;SDS011;1535;51.098;6.414;2022-10-31T01:52:37;23.87;;;19.30;;
3050;SDS011;1535;51.098;6.414;2022-10-31T01:55:08;29.80;;;19.43;;
3050;SDS011;1535;51.098;6.414;2022-10-31T01:57:40;22.83;;;19.00;;
3050;SDS011;1535;51.098;6.414;2022-10-31T02:00:11;31.83;;;18.70;;
3050;SDS011;1535;51.098;6.414;2022-10-31T02:02:39;23.73;;;19.40;;
3050;SDS011;1535;51.098;6.414;2022-10-31T02:05:08;27.40;;;19.27;;
3050;SDS011;1535;51.098;6.414;2022-10-31T02:07:39;19.70;;;17.50;;
3050;SDS011;1535;51.098;6.414;2022-10-31T02:10:11;20.80;;;18.67;;
3050;SDS011;1535;51.098;6.414;2022-10-31T02:12:40;20.77;;;18.67;;
3050;SDS011;1535;51.098;6.414;2022-10-31T02:15:08;21.93;;;18.17;;
3050;SDS011;1535;51.098;6.414;2022-10-31T02:17:36;21.50;;;17.63;;
3050;SDS011;1535;51.098;6.414;2022-10-31T02:20:05;22.97;;;17.90;;
3050;SDS011;1535;51.098;6.414;2022-10-31T02:22:40;18.07;;;16.37;;
3050;SDS011;1535;51.098;6.414;2022-10-31T02:25:51;17.60;;;15.90;;
3050;SDS011;1535;51.098;6.414;2022-10-31T02:28:52;20.23;;;18.07;;
3050;SDS011;1535;51.098;6.414;2022-10-31T02:31:38;22.63;;;19.30;;
3050;SDS011;1535;51.098;6.414;2022-10-31T02:34:13;25.70;;;18.90;;
3050;SDS011;1535;51.098;6.414;2022-10-31T02:36:47;29.67;;;19.33;;
3050;SDS011;1535;51.098;6.414;2022-10-31T02:39:22;22.60;;;18.13;;
3050;SDS011;1535;51.098;6.414;2022-10-31T02:41:52;21.83;;;19.23;;
3050;SDS011;1535;51.098;6.414;2022-10-31T02:44:33;29.57;;;19.83;;
3050;SDS011;1535;51.098;6.414;2022-10-31T02:47:05;21.47;;;19.30;;
3050;SDS011;1535;51.098;6.414;2022-10-31T02:49:35;20.23;;;17.53;;
3050;SDS011;1535;51.098;6.414;2022-10-31T02:52:13;26.57;;;18.20;;
3050;SDS011;1535;51.098;6.414;2022-10-31T02:54:43;24.27;;;19.97;;
3050;SDS011;1535;51.098;6.414;2022-10-31T02:57:11;21.70;;;19.53;;
3050;SDS011;1535;51.098;6.414;2022-10-31T02:59:40;24.40;;;19.30;;
3050;SDS011;1535;51.098;6.414;2022-10-31T03:08:00;20.83;;;18.73;;
3050;SDS011;1535;51.098;6.414;2022-10-31T03:10:35;24.73;;;19.80;;
3050;SDS011;1535;51.098;6.414;2022-10-31T03:13:09;24.30;;;21.80;;
3050;SDS011;1535;51.098;6.414;2022-10-31T03:15:39;29.90;;;21.53;;
3050;SDS011;1535;51.098;6.414;2022-10-31T03:18:11;29.03;;;22.83;;
3050;SDS011;1535;51.098;6.414;2022-10-31T03:20:45;28.70;;;22.33;;
3050;SDS011;1535;51.098;6.414;2022-10-31T03:23:15;29.93;;;21.57;;
3050;SDS011;1535;51.098;6.414;2022-10-31T03:25:44;21.40;;;19.03;;
3050;SDS011;1535;51.098;6.414;2022-10-31T03:28:12;21.40;;;19.10;;
3050;SDS011;1535;51.098;6.414;2022-10-31T03:30:44;24.70;;;19.87;;
3050;SDS011;1535;51.098;6.414;2022-10-31T03:33:16;23.87;;;20.67;;
3050;SDS011;1535;51.098;6.414;2022-10-31T03:35:47;26.30;;;20.33;;
3050;SDS011;1535;51.098;6.414;2022-10-31T03:38:19;18.80;;;16.80;;
3050;SDS011;1535;51.098;6.414;2022-10-31T03:40:47;28.13;;;21.13;;
3050;SDS011;1535;51.098;6.414;2022-10-31T03:43:18;23.90;;;19.67;;
3050;SDS011;1535;51.098;6.414;2022-10-31T03:45:48;30.50;;;22.57;;
3050;SDS011;1535;51.098;6.414;2022-10-31T03:48:16;31.63;;;22.90;;
3050;SDS011;1535;51.098;6.414;2022-10-31T03:50:48;24.77;;;20.60;;
3050;SDS011;1535;51.098;6.414;2022-10-31T03:53:33;29.13;;;21.17;;
3050;SDS011;1535;51.098;6.414;2022-10-31T03:56:06;21.83;;;19.27;;
3050;SDS011;1535;51.098;6.414;2022-10-31T03:58:38;22.33;;;19.93;;
3050;SDS011;1535;51.098;6.414;2022-10-31T04:01:09;23.23;;;18.13;;
3050;SDS011;1535;51.098;6.414;2022-10-31T04:03:42;23.30;;;19.70;;
3050;SDS011;1535;51.098;6.414;2022-10-31T04:06:10;24.90;;;20.23;;
3050;SDS011;1535;51.098;6.414;2022-10-31T04:08:42;33.77;;;21.27;;
3050;SDS011;1535;51.098;6.414;2022-10-31T04:11:11;31.73;;;21.90;;
3050;SDS011;1535;51.098;6.414;2022-10-31T04:13:40;59.23;;;24.03;;
3050;SDS011;1535;51.098;6.414;2022-10-31T04:16:10;25.90;;;20.80;;
3050;SDS011;1535;51.098;6.414;2022-10-31T04:18:41;24.60;;;20.47;;
3050;SDS011;1535;51.098;6.414;2022-10-31T04:21:08;33.10;;;22.03;;
3050;SDS011;1535;51.098;6.414;2022-10-31T04:23:36;28.70;;;21.10;;
3050;SDS011;1535;51.098;6.414;2022-10-31T04:26:03;31.60;;;19.83;;
3050;SDS011;1535;51.098;6.414;2022-10-31T04:28:30;40.80;;;22.97;;
3050;SDS011;1535;51.098;6.414;2022-10-31T04:30:58;32.50;;;18.37;;
3050;SDS011;1535;51.098;6.414;2022-10-31T04:33:26;33.13;;;19.53;;
3050;SDS011;1535;51.098;6.414;2022-10-31T04:35:54;42.83;;;22.23;;
3050;SDS011;1535;51.098;6.414;2022-10-31T04:38:21;41.47;;;20.37;;
3050;SDS011;1535;51.098;6.414;2022-10-31T04:40:48;51.83;;;24.00;;
3050;SDS011;1535;51.098;6.414;2022-10-31T04:43:15;56.83;;;23.40;;
3050;SDS011;1535;51.098;6.414;2022-10-31T04:45:42;45.63;;;22.40;;
3050;SDS011;1535;51.098;6.414;2022-10-31T04:48:09;62.47;;;24.50;;
3050;SDS011;1535;51.098;6.414;2022-10-31T04:50:36;53.20;;;24.83;;
3050;SDS011;1535;51.098;6.414;2022-10-31T04:53:04;49.37;;;23.47;;
3050;SDS011;1535;51.098;6.414;2022-10-31T04:55:31;29.57;;;20.43;;
3050;SDS011;1535;51.098;6.414;2022-10-31T04:57:58;41.27;;;22.90;;
3050;SDS011;1535;51.098;6.414;2022-10-31T05:00:26;38.43;;;22.40;;
3050;SDS011;1535;51.098;6.414;2022-10-31T05:02:53;28.93;;;20.53;;
3050;SDS011;1535;51.098;6.414;2022-10-31T05:05:22;32.47;;;21.80;;
3050;SDS011;1535;51.098;6.414;2022-10-31T05:07:50;35.43;;;22.97;;
3050;SDS011;1535;51.098;6.414;2022-10-31T05:10:20;52.23;;;25.37;;
3050;SDS011;1535;51.098;6.414;2022-10-31T05:12:48;50.73;;;23.87;;
3050;SDS011;1535;51.098;6.414;2022-10-31T05:15:16;35.00;;;25.50;;
3050;SDS011;1535;51.098;6.414;2022-10-31T05:17:44;48.10;;;27.73;;
3050;SDS011;1535;51.098;6.414;2022-10-31T05:20:11;41.73;;;22.87;;
3050;SDS011;1535;51.098;6.414;2022-10-31T05:22:41;22.63;;;20.10;;
3050;SDS011;1535;51.098;6.414;2022-10-31T05:25:09;22.80;;;20.33;;
3050;SDS011;1535;51.098;6.414;2022-10-31T05:27:39;29.77;;;20.87;;
3050;SDS011;1535;51.098;6.414;2022-10-31T05:30:07;23.23;;;19.27;;
3050;SDS011;1535;51.098;6.414;2022-10-31T05:32:38;26.00;;;22.40;;
3050;SDS011;1535;51.098;6.414;2022-10-31T05:35:05;23.00;;;20.97;;
3050;SDS011;1535;51.098;6.414;2022-10-31T05:37:34;39.00;;;23.20;;
3050;SDS011;1535;51.098;6.414;2022-10-31T05:40:01;35.30;;;24.03;;
3050;SDS011;1535;51.098;6.414;2022-10-31T05:42:28;24.03;;;21.40;;
3050;SDS011;1535;51.098;6.414;2022-10-31T05:44:57;29.53;;;21.40;;
3050;SDS011;1535;51.098;6.414;2022-10-31T05:47:24;25.27;;;21.97;;
3050;SDS011;1535;51.098;6.414;2022-10-31T05:49:51;38.83;;;23.00;;
3050;SDS011;1535;51.098;6.414;2022-10-31T05:52:19;35.60;;;24.63;;
3050;SDS011;1535;51.098;6.414;2022-10-31T05:54:46;28.77;;;24.50;;
3050;SDS011;1535;51.098;6.414;2022-10-31T05:57:13;45.03;;;23.67;;
3050;SDS011;1535;51.098;6.414;2022-10-31T05:59:40;38.07;;;25.30;;
3050;SDS011;1535;51.098;6.414;2022-10-31T06:02:08;36.97;;;23.40;;
3050;SDS011;1535;51.098;6.414;2022-10-31T06:04:35;30.63;;;23.80;;
3050;SDS011;1535;51.098;6.414;2022-10-31T06:07:02;32.77;;;23.13;;
3050;SDS011;1535;51.098;6.414;2022-10-31T06:09:29;25.33;;;21.40;;
3050;SDS011;1535;51.098;6.414;2022-10-31T06:11:56;26.97;;;23.37;;
3050;SDS011;1535;51.098;6.414;2022-10-31T06:14:23;38.03;;;26.10;;
3050;SDS011;1535;51.098;6.414;2022-10-31T06:16:49;39.03;;;23.97;;
3050;SDS011;1535;51.098;6.414;2022-10-31T06:19:18;29.77;;;23.00;;
3050;SDS011;1535;51.098;6.414;2022-10-31T06:21:46;44.43;;;25.10;;
3050;SDS011;1535;51.098;6.414;2022-10-31T06:24:13;45.40;;;26.73;;
3050;SDS011;1535;51.098;6.414;2022-10-31T06:26:40;47.97;;;26.23;;
3050;SDS011;1535;51.098;6.414;2022-10-31T06:29:07;27.07;;;21.93;;
3050;SDS011;1535;51.098;6.414;2022-10-31T06:31:34;29.27;;;22.47;;
3050;SDS011;1535;51.098;6.414;2022-10-31T06:34:00;33.80;;;23.87;;
3050;SDS011;1535;51.098;6.414;2022-10-31T06:36:28;42.93;;;26.17;;
3050;SDS011;1535;51.098;6.414;2022-10-31T06:38:55;41.20;;;28.50;;
3050;SDS011;1535;51.098;6.414;2022-10-31T06:41:23;44.30;;;27.90;;
3050;SDS011;1535;51.098;6.414;2022-10-31T06:43:50;37.80;;;24.77;;
3050;SDS011;1535;51.098;6.414;2022-10-31T06:46:17;28.90;;;22.73;;
3050;SDS011;1535;51.098;6.414;2022-10-31T06:48:44;49.20;;;25.07;;
3050;SDS011;1535;51.098;6.414;2022-10-31T06:51:11;35.30;;;24.90;;
3050;SDS011;1535;51.098;6.414;2022-10-31T06:53:39;39.53;;;24.97;;
3050;SDS011;1535;51.098;6.414;2022-10-31T06:56:05;35.77;;;26.13;;
3050;SDS011;1535;51.098;6.414;2022-10-31T06:58:33;25.10;;;20.90;;
3050;SDS011;1535;51.098;6.414;2022-10-31T07:01:00;28.77;;;22.03;;
3050;SDS011;1535;51.098;6.414;2022-10-31T07:03:27;39.43;;;23.07;;
3050;SDS011;1535;51.098;6.414;2022-10-31T07:05:55;36.70;;;24.13;;
3050;SDS011;1535;51.098;6.414;2022-10-31T07:08:22;37.90;;;25.87;;
3050;SDS011;1535;51.098;6.414;2022-10-31T07:10:53;48.53;;;26.30;;
3050;SDS011;1535;51.098;6.414;2022-10-31T07:13:21;31.23;;;23.57;;
3050;SDS011;1535;51.098;6.414;2022-10-31T07:15:50;41.97;;;24.50;;
3050;SDS011;1535;51.098;6.414;2022-10-31T07:18:19;36.77;;;23.83;;
3050;SDS011;1535;51.098;6.414;2022-10-31T07:20:46;43.50;;;24.13;;
3050;SDS011;1535;51.098;6.414;2022-10-31T07:23:13;34.37;;;23.13;;
3050;SDS011;1535;51.098;6.414;2022-10-31T07:25:41;43.30;;;24.63;;
3050;SDS011;1535;51.098;6.414;2022-10-31T07:28:09;40.60;;;25.80;;
3050;SDS011;1535;51.098;6.414;2022-10-31T07:30:36;41.30;;;25.07;;
3050;SDS011;1535;51.098;6.414;2022-10-31T07:33:04;39.90;;;23.70;;
3050;SDS011;1535;51.098;6.414;2022-10-31T07:35:31;36.00;;;22.63;;
3050;SDS011;1535;51.098;6.414;2022-10-31T07:38:06;45.90;;;23.17;;
3050;SDS011;1535;51.098;6.414;2022-10-31T07:40:33;47.77;;;23.53;;
3050;SDS011;1535;51.098;6.414;2022-10-31T07:43:01;39.67;;;22.30;;
3050;SDS011;1535;51.098;6.414;2022-10-31T07:45:29;47.30;;;23.20;;
3050;SDS011;1535;51.098;6.414;2022-10-31T07:47:56;53.00;;;23.20;;
3050;SDS011;1535;51.098;6.414;2022-10-31T07:50:24;44.03;;;23.20;;
3050;SDS011;1535;51.098;6.414;2022-10-31T07:52:58;43.60;;;21.60;;
3050;SDS011;1535;51.098;6.414;2022-10-31T07:55:25;49.07;;;23.43;;
3050;SDS011;1535;51.098;6.414;2022-10-31T07:57:56;45.30;;;22.50;;
3050;SDS011;1535;51.098;6.414;2022-10-31T08:00:24;55.93;;;25.57;;
3050;SDS011;1535;51.098;6.414;2022-10-31T08:02:59;41.73;;;23.33;;
3050;SDS011;1535;51.098;6.414;2022-10-31T08:05:28;53.63;;;25.70;;
3050;SDS011;1535;51.098;6.414;2022-10-31T08:07:55;49.57;;;24.50;;
3050;SDS011;1535;51.098;6.414;2022-10-31T08:10:24;55.10;;;25.63;;
3050;SDS011;1535;51.098;6.414;2022-10-31T08:12:56;51.40;;;25.03;;
3050;SDS011;1535;51.098;6.414;2022-10-31T08:15:24;55.40;;;25.40;;
3050;SDS011;1535;51.098;6.414;2022-10-31T08:17:51;49.60;;;23.53;;
3050;SDS011;1535;51.098;6.414;2022-10-31T08:20:21;62.10;;;25.63;;
3050;SDS011;1535;51.098;6.414;2022-10-31T08:22:54;55.33;;;23.83;;
3050;SDS011;1535;51.098;6.414;2022-10-31T08:25:22;45.23;;;23.93;;
3050;SDS011;1535;51.098;6.414;2022-10-31T08:27:50;42.87;;;22.80;;
3050;SDS011;1535;51.098;6.414;2022-10-31T08:30:18;37.47;;;22.07;;
3050;SDS011;1535;51.098;6.414;2022-10-31T08:32:45;35.60;;;21.47;;
3050;SDS011;1535;51.098;6.414;2022-10-31T08:35:12;35.93;;;21.40;;
3050;SDS011;1535;51.098;6.414;2022-10-31T08:37:40;36.53;;;21.83;;
3050;SDS011;1535;51.098;6.414;2022-10-31T08:40:07;36.50;;;24.10;;
3050;SDS011;1535;51.098;6.414;2022-10-31T08:42:36;38.20;;;22.47;;
3050;SDS011;1535;51.098;6.414;2022-10-31T08:45:02;38.13;;;21.97;;
3050;SDS011;1535;51.098;6.414;2022-10-31T08:47:30;37.80;;;21.20;;
3050;SDS011;1535;51.098;6.414;2022-10-31T08:49:58;38.23;;;21.27;;
3050;SDS011;1535;51.098;6.414;2022-10-31T08:52:26;35.17;;;20.33;;
3050;SDS011;1535;51.098;6.414;2022-10-31T08:54:54;33.40;;;20.13;;
3050;SDS011;1535;51.098;6.414;2022-10-31T08:57:21;38.70;;;20.57;;
3050;SDS011;1535;51.098;6.414;2022-10-31T08:59:47;36.27;;;20.20;;
3050;SDS011;1535;51.098;6.414;2022-10-31T09:02:14;30.40;;;20.23;;
3050;SDS011;1535;51.098;6.414;2022-10-31T09:04:41;36.00;;;19.03;;
3050;SDS011;1535;51.098;6.414;2022-10-31T09:07:08;22.40;;;18.63;;
3050;SDS011;1535;51.098;6.414;2022-10-31T09:09:34;29.47;;;19.73;;
3050;SDS011;1535;51.098;6.414;2022-10-31T09:12:03;27.00;;;18.93;;
3050;SDS011;1535;51.098;6.414;2022-10-31T09:14:30;28.30;;;17.83;;
3050;SDS011;1535;51.098;6.414;2022-10-31T09:16:58;29.13;;;17.87;;
3050;SDS011;1535;51.098;6.414;2022-10-31T09:19:25;20.30;;;18.17;;
3050;SDS011;1535;51.098;6.414;2022-10-31T09:21:54;31.07;;;19.27;;
3050;SDS011;1535;51.098;6.414;2022-10-31T09:24:20;26.27;;;18.80;;
3050;SDS011;1535;51.098;6.414;2022-10-31T09:26:47;28.00;;;18.77;;
3050;SDS011;1535;51.098;6.414;2022-10-31T09:29:15;23.30;;;20.00;;
3050;SDS011;1535;51.098;6.414;2022-10-31T09:31:42;24.73;;;20.00;;
3050;SDS011;1535;51.098;6.414;2022-10-31T09:34:09;19.87;;;18.03;;
3050;SDS011;1535;51.098;6.414;2022-10-31T09:36:36;23.83;;;18.10;;
3050;SDS011;1535;51.098;6.414;2022-10-31T09:39:04;27.37;;;19.13;;
3050;SDS011;1535;51.098;6.414;2022-10-31T09:41:38;20.97;;;17.97;;
3050;SDS011;1535;51.098;6.414;2022-10-31T09:44:26;27.93;;;18.63;;
3050;SDS011;1535;51.098;6.414;2022-10-31T09:47:03;29.47;;;20.23;;
3050;SDS011;1535;51.098;6.414;2022-10-31T09:49:35;20.60;;;18.70;;
3050;SDS011;1535;51.098;6.414;2022-10-31T09:52:12;31.27;;;18.20;;
3050;SDS011;1535;51.098;6.414;2022-10-31T09:54:45;24.37;;;20.37;;
3050;SDS011;1535;51.098;6.414;2022-10-31T09:57:14;21.97;;;19.63;;
3050;SDS011;1535;51.098;6.414;2022-10-31T09:59:46;32.30;;;20.20;;
3050;SDS011;1535;51.098;6.414;2022-10-31T10:02:14;22.93;;;20.60;;
3050;SDS011;1535;51.098;6.414;2022-10-31T10:04:47;26.40;;;20.53;;
3050;SDS011;1535;51.098;6.414;2022-10-31T10:07:21;24.07;;;21.37;;
3050;SDS011;1535;51.098;6.414;2022-10-31T10:09:55;23.93;;;21.60;;
3050;SDS011;1535;51.098;6.414;2022-10-31T10:12:25;22.10;;;19.83;;
3050;SDS011;1535;51.098;6.414;2022-10-31T10:15:09;25.10;;;21.30;;
3050;SDS011;1535;51.098;6.414;2022-10-31T10:17:54;22.83;;;20.20;;
3050;SDS011;1535;51.098;6.414;2022-10-31T10:20:30;25.67;;;22.40;;
3050;SDS011;1535;51.098;6.414;2022-10-31T10:23:08;22.57;;;20.67;;
3050;SDS011;1535;51.098;6.414;2022-10-31T10:25:49;32.43;;;22.20;;
3050;SDS011;1535;51.098;6.414;2022-10-31T10:28:23;29.30;;;22.50;;
3050;SDS011;1535;51.098;6.414;2022-10-31T10:30:56;26.40;;;22.83;;
3050;SDS011;1535;51.098;6.414;2022-10-31T10:33:27;24.80;;;22.50;;
3050;SDS011;1535;51.098;6.414;2022-10-31T10:35:58;23.87;;;20.77;;
3050;SDS011;1535;51.098;6.414;2022-10-31T10:38:28;22.90;;;20.50;;
3050;SDS011;1535;51.098;6.414;2022-10-31T10:41:00;25.03;;;20.90;;
3050;SDS011;1535;51.098;6.414;2022-10-31T10:43:33;22.57;;;20.27;;
3050;SDS011;1535;51.098;6.414;2022-10-31T10:46:13;25.87;;;19.70;;
3050;SDS011;1535;51.098;6.414;2022-10-31T10:49:05;21.77;;;19.53;;
3050;SDS011;1535;51.098;6.414;2022-10-31T10:51:39;23.53;;;20.30;;
3050;SDS011;1535;51.098;6.414;2022-10-31T10:54:14;21.23;;;18.97;;
3050;SDS011;1535;51.098;6.414;2022-10-31T10:57:05;26.23;;;18.80;;
3050;SDS011;1535;51.098;6.414;2022-10-31T10:59:38;22.60;;;20.20;;
3050;SDS011;1535;51.098;6.414;2022-10-31T11:02:08;22.77;;;20.27;;
3050;SDS011;1535;51.098;6.414;2022-10-31T11:04:44;22.60;;;20.37;;
3050;SDS011;1535;51.098;6.414;2022-10-31T11:07:13;23.97;;;21.20;;
3050;SDS011;1535;51.098;6.414;2022-10-31T11:09:41;32.30;;;20.47;;
3050;SDS011;1535;51.098;6.414;2022-10-31T11:12:08;23.07;;;19.80;;
3050;SDS011;1535;51.098;6.414;2022-10-31T11:14:42;22.60;;;20.47;;
3050;SDS011;1535;51.098;6.414;2022-10-31T11:17:19;23.20;;;19.63;;
3050;SDS011;1535;51.098;6.414;2022-10-31T11:19:59;25.67;;;20.37;;
3050;SDS011;1535;51.098;6.414;2022-10-31T11:22:31;29.00;;;20.13;;
3050;SDS011;1535;51.098;6.414;2022-10-31T11:24:58;21.30;;;19.20;;
3050;SDS011;1535;51.098;6.414;2022-10-31T11:27:26;22.03;;;19.80;;
3050;SDS011;1535;51.098;6.414;2022-10-31T11:29:53;29.30;;;20.60;;
3050;SDS011;1535;51.098;6.414;2022-10-31T11:32:32;22.00;;;19.80;;
3050;SDS011;1535;51.098;6.414;2022-10-31T11:35:00;21.73;;;19.60;;
3050;SDS011;1535;51.098;6.414;2022-10-31T11:37:29;26.63;;;20.00;;
3050;SDS011;1535;51.098;6.414;2022-10-31T11:40:02;31.83;;;19.93;;
3050;SDS011;1535;51.098;6.414;2022-10-31T11:42:35;20.87;;;18.87;;
3050;SDS011;1535;51.098;6.414;2022-10-31T11:45:05;21.80;;;19.73;;
3050;SDS011;1535;51.098;6.414;2022-10-31T11:47:41;21.73;;;19.57;;
3050;SDS011;1535;51.098;6.414;2022-10-31T11:50:11;26.37;;;18.60;;
3050;SDS011;1535;51.098;6.414;2022-10-31T11:52:45;20.63;;;19.00;;
3050;SDS011;1535;51.098;6.414;2022-10-31T11:55:15;22.30;;;19.80;;
3050;SDS011;1535;51.098;6.414;2022-10-31T11:57:44;26.00;;;20.70;;
3050;SDS011;1535;51.098;6.414;2022-10-31T12:00:20;25.50;;;18.57;;
3050;SDS011;1535;51.098;6.414;2022-10-31T12:02:50;22.80;;;18.87;;
3050;SDS011;1535;51.098;6.414;2022-10-31T12:05:17;19.93;;;17.90;;
3050;SDS011;1535;51.098;6.414;2022-10-31T12:07:47;20.17;;;18.30;;
3050;SDS011;1535;51.098;6.414;2022-10-31T12:10:14;20.33;;;18.33;;
3050;SDS011;1535;51.098;6.414;2022-10-31T12:12:46;20.80;;;19.20;;
3050;SDS011;1535;51.098;6.414;2022-10-31T12:15:33;19.97;;;18.17;;
3050;SDS011;1535;51.098;6.414;2022-10-31T12:18:17;20.30;;;18.40;;
3050;SDS011;1535;51.098;6.414;2022-10-31T12:21:14;21.73;;;19.47;;
3050;SDS011;1535;51.098;6.414;2022-10-31T12:23:49;27.53;;;17.67;;
3050;SDS011;1535;51.098;6.414;2022-10-31T12:26:26;21.57;;;17.97;;
3050;SDS011;1535;51.098;6.414;2022-10-31T12:29:04;20.27;;;18.20;;
3050;SDS011;1535;51.098;6.414;2022-10-31T12:31:45;30.27;;;17.67;;
3050;SDS011;1535;51.098;6.414;2022-10-31T12:34:32;21.67;;;19.43;;
3050;SDS011;1535;51.098;6.414;2022-10-31T12:37:21;19.67;;;17.80;;
3050;SDS011;1535;51.098;6.414;2022-10-31T12:40:00;19.43;;;17.73;;
3050;SDS011;1535;51.098;6.414;2022-10-31T12:42:50;20.63;;;18.63;;
3050;SDS011;1535;51.098;6.414;2022-10-31T12:45:35;20.77;;;18.47;;
3050;SDS011;1535;51.098;6.414;2022-10-31T12:48:14;21.63;;;19.27;;
3050;SDS011;1535;51.098;6.414;2022-10-31T12:51:00;26.00;;;18.33;;
3050;SDS011;1535;51.098;6.414;2022-10-31T12:53:38;19.70;;;18.00;;
3050;SDS011;1535;51.098;6.414;2022-10-31T12:56:22;28.30;;;18.03;;
3050;SDS011;1535;51.098;6.414;2022-10-31T12:59:00;20.23;;;18.10;;
3050;SDS011;1535;51.098;6.414;2022-10-31T13:01:30;19.70;;;17.60;;
3050;SDS011;1535;51.098;6.414;2022-10-31T13:04:01;24.27;;;18.60;;
3050;SDS011;1535;51.098;6.414;2022-10-31T13:06:32;19.00;;;17.50;;
3050;SDS011;1535;51.098;6.414;2022-10-31T13:09:02;33.87;;;18.80;;
3050;SDS011;1535;51.098;6.414;2022-10-31T13:11:34;21.47;;;18.97;;
3050;SDS011;1535;51.098;6.414;2022-10-31T13:14:05;21.70;;;17.87;;
3050;SDS011;1535;51.098;6.414;2022-10-31T13:16:38;20.93;;;19.00;;
3050;SDS011;1535;51.098;6.414;2022-10-31T13:19:09;23.20;;;18.60;;
3050;SDS011;1535;51.098;6.414;2022-10-31T13:21:45;20.27;;;18.30;;
3050;SDS011;1535;51.098;6.414;2022-10-31T13:24:22;23.43;;;18.57;;
3050;SDS011;1535;51.098;6.414;2022-10-31T13:26:56;19.73;;;18.23;;
3050;SDS011;1535;51.098;6.414;2022-10-31T13:29:27;19.53;;;17.90;;
3050;SDS011;1535;51.098;6.414;2022-10-31T13:31:56;20.20;;;18.40;;
3050;SDS011;1535;51.098;6.414;2022-10-31T13:34:25;20.47;;;18.70;;
3050;SDS011;1535;51.098;6.414;2022-10-31T13:36:58;20.53;;;18.43;;
3050;SDS011;1535;51.098;6.414;2022-10-31T13:39:32;19.63;;;17.93;;
3050;SDS011;1535;51.098;6.414;2022-10-31T13:42:10;22.10;;;18.10;;
3050;SDS011;1535;51.098;6.414;2022-10-31T13:44:44;21.53;;;18.60;;
3050;SDS011;1535;51.098;6.414;2022-10-31T13:47:21;20.20;;;18.40;;
3050;SDS011;1535;51.098;6.414;2022-10-31T13:50:02;27.00;;;18.07;;
3050;SDS011;1535;51.098;6.414;2022-10-31T13:52:32;20.00;;;18.10;;
3050;SDS011;1535;51.098;6.414;2022-10-31T13:54:59;23.93;;;18.07;;
3050;SDS011;1535;51.098;6.414;2022-10-31T13:57:30;20.53;;;18.40;;
3050;SDS011;1535;51.098;6.414;2022-10-31T13:59:59;26.50;;;18.80;;
3050;SDS011;1535;51.098;6.414;2022-10-31T14:02:32;21.97;;;17.53;;
3050;SDS011;1535;51.098;6.414;2022-10-31T14:05:01;22.67;;;18.10;;
3050;SDS011;1535;51.098;6.414;2022-10-31T14:07:30;19.47;;;17.87;;
3050;SDS011;1535;51.098;6.414;2022-10-31T14:10:00;18.60;;;16.87;;
3050;SDS011;1535;51.098;6.414;2022-10-31T14:12:30;18.93;;;17.07;;
3050;SDS011;1535;51.098;6.414;2022-10-31T14:15:02;20.57;;;18.57;;
3050;SDS011;1535;51.098;6.414;2022-10-31T14:17:36;29.60;;;17.00;;
3050;SDS011;1535;51.098;6.414;2022-10-31T14:23:13;22.67;;;18.00;;
3050;SDS011;1535;51.098;6.414;2022-10-31T14:26:06;18.73;;;17.23;;
3050;SDS011;1535;51.098;6.414;2022-10-31T14:28:47;19.17;;;17.33;;
3050;SDS011;1535;51.098;6.414;2022-10-31T14:31:29;18.00;;;16.50;;
3050;SDS011;1535;51.098;6.414;2022-10-31T14:34:01;19.43;;;17.30;;
3050;SDS011;1535;51.098;6.414;2022-10-31T14:36:34;19.40;;;17.47;;
3050;SDS011;1535;51.098;6.414;2022-10-31T14:39:10;21.27;;;16.17;;
3050;SDS011;1535;51.098;6.414;2022-10-31T14:41:47;23.33;;;17.70;;
3050;SDS011;1535;51.098;6.414;2022-10-31T14:44:33;20.97;;;17.93;;
3050;SDS011;1535;51.098;6.414;2022-10-31T14:47:31;17.50;;;15.83;;
3050;SDS011;1535;51.098;6.414;2022-10-31T14:50:12;18.90;;;17.40;;
3050;SDS011;1535;51.098;6.414;2022-10-31T14:52:56;20.93;;;16.73;;
3050;SDS011;1535;51.098;6.414;2022-10-31T14:55:28;21.37;;;17.30;;
3050;SDS011;1535;51.098;6.414;2022-10-31T14:57:56;18.90;;;17.13;;
3050;SDS011;1535;51.098;6.414;2022-10-31T15:00:25;18.73;;;16.97;;
3050;SDS011;1535;51.098;6.414;2022-10-31T15:02:56;19.47;;;17.60;;
3050;SDS011;1535;51.098;6.414;2022-10-31T15:05:31;19.80;;;17.90;;
3050;SDS011;1535;51.098;6.414;2022-10-31T15:08:00;17.80;;;16.10;;
3050;SDS011;1535;51.098;6.414;2022-10-31T15:10:29;17.43;;;15.93;;
3050;SDS011;1535;51.098;6.414;2022-10-31T15:13:08;17.93;;;16.40;;
3050;SDS011;1535;51.098;6.414;2022-10-31T15:15:36;18.90;;;17.03;;
3050;SDS011;1535;51.098;6.414;2022-10-31T15:18:04;18.77;;;16.83;;
3050;SDS011;1535;51.098;6.414;2022-10-31T15:20:33;19.83;;;17.90;;